createdAt,value
2022-10-22T13:34:37.827Z,7.21
2022-10-22T13:39:59.073Z,7.15
2022-10-22T13:45:20.969Z,7.20
2022-10-22T13:50:42.719Z,7.21
2022-10-22T13:56:04.020Z,7.12
2022-10-22T14:01:27.746Z,7.16
2022-10-22T14:06:49.250Z,7.26
2022-10-22T14:12:16.959Z,7.16
2022-10-22T14:17:39.288Z,7.02
2022-10-22T14:23:13.413Z,7.03
2022-10-22T14:28:41.277Z,7.00
2022-10-22T14:34:11.094Z,6.87
2022-10-22T14:39:32.459Z,6.86
2022-10-22T14:44:54.004Z,6.95
2022-10-22T14:50:15.820Z,6.99
2022-10-22T14:55:37.264Z,7.14
2022-10-22T15:00:58.655Z,7.21
2022-10-22T15:06:20.130Z,7.26
2022-10-22T15:11:42.837Z,7.25
2022-10-22T15:17:04.299Z,7.34
2022-10-22T15:22:25.525Z,7.24
2022-10-22T15:27:50.344Z,7.15
2022-10-22T15:33:13.142Z,7.15
2022-10-22T15:38:34.335Z,7.12
2022-10-22T15:43:55.496Z,7.05
2022-10-22T15:49:17.619Z,6.96
2022-10-22T15:54:41.141Z,6.86
2022-10-22T16:00:04.416Z,6.71
2022-10-22T16:05:33.689Z,6.69
2022-10-22T16:10:55.168Z,6.61
2022-10-22T16:16:16.675Z,6.55
2022-10-22T16:21:38.350Z,6.50
2022-10-22T16:27:00.370Z,6.44
2022-10-22T16:32:21.730Z,6.37
2022-10-22T16:37:43.695Z,6.30
2022-10-22T16:43:06.065Z,6.23
2022-10-22T16:48:27.316Z,6.24
2022-10-22T16:53:49.206Z,6.01
2022-10-22T16:59:10.494Z,6.05
2022-10-22T17:04:32.154Z,6.13
2022-10-22T17:09:53.449Z,6.14
2022-10-22T17:15:15.149Z,6.14
2022-10-22T17:20:36.445Z,6.22
2022-10-22T17:26:09.018Z,6.21
2022-10-22T17:31:33.270Z,6.17
2022-10-22T17:36:55.767Z,6.25
2022-10-22T17:42:17.331Z,6.25
2022-10-22T17:47:38.959Z,6.24
2022-10-22T17:53:00.547Z,6.18
2022-10-22T17:58:22.059Z,6.20
2022-10-22T18:03:43.703Z,6.13
2022-10-22T18:09:06.911Z,6.13
2022-10-22T18:14:28.246Z,6.09
2022-10-22T18:19:49.718Z,6.09
2022-10-22T18:25:12.006Z,6.17
2022-10-22T18:30:34.948Z,6.21
2022-10-22T18:35:57.053Z,6.23
2022-10-22T18:41:19.383Z,6.17
2022-10-22T18:46:40.704Z,6.05
2022-10-22T18:52:01.816Z,6.01
2022-10-22T18:57:23.259Z,6.05
2022-10-22T19:02:44.863Z,6.12
2022-10-22T19:08:06.383Z,6.03
2022-10-22T19:13:28.626Z,5.94
2022-10-22T19:18:59.562Z,5.89
2022-10-22T19:24:21.049Z,5.91
2022-10-22T19:29:45.354Z,5.82
2022-10-22T19:35:06.903Z,5.74
2022-10-22T19:40:28.660Z,5.72
2022-10-22T19:45:50.183Z,5.68
2022-10-22T19:51:17.957Z,5.63
2022-10-22T19:56:39.478Z,5.56
2022-10-22T20:02:01.185Z,5.44
2022-10-22T20:07:22.722Z,5.28
2022-10-22T20:12:43.931Z,5.17
2022-10-22T20:18:05.569Z,5.06
2022-10-22T20:23:27.027Z,4.79
2022-10-22T20:28:48.504Z,4.77
2022-10-22T20:34:10.144Z,4.71
2022-10-22T20:39:31.826Z,4.78
2022-10-22T20:44:53.296Z,4.84
2022-10-22T20:50:14.804Z,4.84
2022-10-22T20:55:36.555Z,4.82
2022-10-22T21:01:01.101Z,4.82
2022-10-22T21:06:23.457Z,4.76
2022-10-22T21:11:45.701Z,4.72
2022-10-22T21:17:08.344Z,4.71
2022-10-22T21:22:29.951Z,4.79
2022-10-22T21:27:51.467Z,4.84
2022-10-22T21:33:13.151Z,4.88
2022-10-22T21:38:35.328Z,4.91
2022-10-22T21:43:56.854Z,5.02
2022-10-22T21:49:18.224Z,5.02
2022-10-22T21:54:39.990Z,5.07
2022-10-22T22:00:01.335Z,5.09
2022-10-22T22:05:23.042Z,5.02
2022-10-22T22:10:44.281Z,5.05
2022-10-22T22:16:08.996Z,5.00
2022-10-22T22:21:30.936Z,4.93
2022-10-22T22:26:52.505Z,4.87
2022-10-22T22:32:14.588Z,4.97
2022-10-22T22:37:35.774Z,4.95
2022-10-22T22:42:57.327Z,4.90
2022-10-22T22:48:18.743Z,4.88
2022-10-22T22:53:40.161Z,4.85
2022-10-22T22:59:01.706Z,4.88
2022-10-22T23:04:23.938Z,4.92
2022-10-22T23:09:45.525Z,4.92
2022-10-22T23:15:07.465Z,4.89
2022-10-22T23:20:29.184Z,4.93
2022-10-22T23:25:50.626Z,4.92
2022-10-22T23:31:17.904Z,4.90
2022-10-22T23:36:39.582Z,4.90
2022-10-22T23:42:01.301Z,4.86
2022-10-22T23:47:22.948Z,4.66
2022-10-22T23:52:44.768Z,4.53
2022-10-22T23:58:06.761Z,4.37
